Time;durP1;ratioP1;P1;durP2;ratioP2;P2;SDS_P1;SDS_P2;PMS_P1;PMS_P2;Temp;Humidity;BMP_temperature;BMP_pressure;BME280_temperature;BME280_humidity;BME280_pressure;Samples;Min_cycle;Max_cycle;Signal;HPM_P1;HPM_P2
2022/05/08 00:00:05;;;;;;;13.60;9.50;;;;;;;9.38;77.19;97762.35;110097;1249;59696;-68
2022/05/08 00:03:01;;;;;;;12.80;10.20;;;;;;;9.38;77.35;97766.02;110100;1249;59707;-66
2022/05/08 00:05:31;;;;;;;15.40;11.90;;;;;;;9.35;76.60;97761.19;110137;1249;71687;-68
2022/05/08 00:08:06;;;;;;;13.00;10.20;;;;;;;9.33;77.49;97760.63;109963;1250;68492;-68
2022/05/08 00:10:35;;;;;;;10.70;8.80;;;;;;;9.31;76.64;97761.63;110006;1250;68948;-67
2022/05/08 00:13:05;;;;;;;12.50;9.70;;;;;;;9.29;75.58;97758.08;110095;1250;59693;-67
2022/05/08 00:15:35;;;;;;;9.70;8.00;;;;;;;9.30;75.70;97760.14;110142;1249;59668;-68
2022/05/08 00:18:05;;;;;;;10.20;9.10;;;;;;;9.30;74.18;97759.95;109953;1250;71366;-68
2022/05/08 00:20:35;;;;;;;10.90;8.30;;;;;;;9.30;74.18;97757.86;110070;1250;67918;-65
2022/05/08 00:23:07;;;;;;;11.30;8.10;;;;;;;9.30;73.30;97757.52;110002;1250;68527;-68
2022/05/08 00:25:39;;;;;;;13.20;8.90;;;;;;;9.28;73.12;97759.02;110077;1249;59635;-67
2022/05/08 00:28:10;;;;;;;10.10;8.10;;;;;;;9.26;73.63;97762.60;109883;1250;59659;-68
2022/05/08 00:30:41;;;;;;;10.20;8.20;;;;;;;9.27;73.84;97759.27;109947;1250;71141;-68
2022/05/08 00:33:11;;;;;;;11.60;9.10;;;;;;;9.26;74.82;97760.36;109890;1250;68716;-68
2022/05/08 00:35:41;;;;;;;;;;;;;;;9.23;74.85;97757.60;109917;1250;69405;-67
2022/05/08 00:38:11;;;;;;;11.80;8.80;;;;;;;9.16;76.09;97760.58;110043;1249;59729;-68
2022/05/08 00:40:43;;;;;;;10.20;8.60;;;;;;;9.11;76.98;97761.60;109829;1250;59644;-70
2022/05/08 00:43:32;;;;;;;12.20;9.50;;;;;;;9.06;78.08;97754.63;110013;1249;71518;-67
2022/05/08 00:46:10;;;;;;;12.50;8.50;;;;;;;8.99;79.07;97757.67;109762;1250;67641;-68
2022/05/08 00:48:42;;;;;;;12.10;9.30;;;;;;;8.91;78.00;97754.84;109844;1250;69453;-67
2022/05/08 00:51:17;;;;;;;11.10;8.00;;;;;;;8.84;78.24;97755.41;110017;1250;59673;-70
2022/05/08 00:53:50;;;;;;;11.10;7.00;;;;;;;8.79;77.51;97759.02;110206;1250;59655;-70
2022/05/08 00:56:21;;;;;;;10.30;6.60;;;;;;;8.75;76.44;97757.21;110147;1248;71516;-67
2022/05/08 00:58:52;;;;;;;11.10;6.90;;;;;;;8.72;75.63;97759.27;109919;1249;67667;-69
2022/05/08 01:01:22;;;;;;;12.60;7.60;;;;;;;8.70;75.30;97757.18;110210;1248;68656;-68
2022/05/08 01:03:52;;;;;;;9.00;6.50;;;;;;;8.67;76.40;97761.09;110071;1249;59716;-67
2022/05/08 01:06:27;;;;;;;10.20;7.60;;;;;;;8.64;76.60;97761.81;109912;1250;60071;-68
2022/05/08 01:08:57;;;;;;;10.80;7.90;;;;;;;8.61;77.12;97763.42;110049;1250;71054;-68
2022/05/08 01:11:27;;;;;;;10.20;7.40;;;;;;;8.58;78.08;97764.27;109837;1249;67645;-67
2022/05/08 01:13:57;;;;;;;10.80;7.90;;;;;;;8.56;78.54;97763.90;110212;1249;69480;-66
2022/05/08 01:16:26;;;;;;;10.20;7.10;;;;;;;8.54;77.09;97763.32;110164;1250;59706;-67
2022/05/08 01:18:56;;;;;;;11.60;7.80;;;;;;;8.52;75.22;97764.26;110152;1248;60126;-70
2022/05/08 01:21:38;;;;;;;10.70;7.70;;;;;;;8.53;74.39;97765.28;110069;1250;70843;-69
2022/05/08 01:24:20;;;;;;;11.20;8.20;;;;;;;8.54;75.07;97766.45;110208;1248;68558;-67
2022/05/08 01:26:50;;;;;;;8.40;6.80;;;;;;;8.54;75.51;97763.63;110120;1249;69465;-68
2022/05/08 01:29:19;;;;;;;9.70;7.40;;;;;;;8.54;74.51;97766.40;110137;1248;60149;-68
2022/05/08 01:31:49;;;;;;;9.80;5.30;;;;;;;8.53;74.26;97762.83;109907;1250;59743;-67
2022/05/08 01:34:20;;;;;;;8.50;6.50;;;;;;;8.52;74.21;97763.96;110054;1249;71357;-68
2022/05/08 01:36:50;;;;;;;9.50;7.10;;;;;;;8.49;74.79;97761.66;110056;1250;68568;-67
2022/05/08 01:39:20;;;;;;;9.90;7.60;;;;;;;8.45;75.30;97761.25;109975;1250;69403;-67
2022/05/08 01:41:50;;;;;;;9.40;7.60;;;;;;;8.39;78.16;97763.31;109822;1250;59763;-68
2022/05/08 01:44:24;;;;;;;10.40;7.50;;;;;;;8.35;78.76;97768.73;110089;1250;59668;-68
2022/05/08 01:48:21;;;;;;;10.20;8.50;;;;;;;8.30;78.41;97770.61;110234;1250;69897;-67
2022/05/08 01:49:43;;;;;;;9.90;7.80;;;;;;;8.25;78.25;97772.08;109987;1250;68628;-67
2022/05/08 01:52:13;;;;;;;10.90;7.80;;;;;;;8.22;78.69;97771.25;110193;1250;68548;-67
2022/05/08 01:54:43;;;;;;;10.90;8.00;;;;;;;8.18;79.62;97771.09;110110;1247;59787;-69
2022/05/08 01:57:13;;;;;;;12.00;9.20;;;;;;;8.14;80.35;97771.63;109996;1248;60044;-67
2022/05/08 01:59:43;;;;;;;10.30;6.90;;;;;;;8.12;79.84;97772.13;109733;1250;70792;-69
2022/05/08 02:02:13;;;;;;;;;;;;;;;8.11;76.55;97768.89;109994;1250;67877;-68
2022/05/08 02:04:43;;;;;;;11.10;7.10;;;;;;;8.12;76.21;97770.38;109960;1250;69428;-67
2022/05/08 02:07:13;;;;;;;10.40;7.00;;;;;;;8.16;76.20;97767.21;109931;1249;59724;-68
2022/05/08 02:09:44;;;;;;;11.10;7.30;;;;;;;8.20;77.04;97769.08;110055;1248;59626;-69
2022/05/08 02:12:14;;;;;;;13.30;8.50;;;;;;;8.21;78.08;97773.17;109947;1250;70437;-67
2022/05/08 02:14:45;;;;;;;9.10;7.90;;;;;;;8.19;77.61;97772.98;109850;1250;67732;-70
2022/05/08 02:17:17;;;;;;;10.70;8.90;;;;;;;8.13;78.93;97776.73;110071;1250;68510;-68
2022/05/08 02:19:48;;;;;;;13.00;10.80;;;;;;;8.09;78.50;97778.71;109937;1250;59755;-68
2022/05/08 02:22:18;;;;;;;9.30;7.80;;;;;;;8.05;76.83;97782.59;110005;1247;59703;-69
2022/05/08 02:24:49;;;;;;;11.30;8.90;;;;;;;8.02;77.35;97783.62;109978;1250;70751;-69
2022/05/08 02:27:20;;;;;;;11.70;8.10;;;;;;;7.97;77.81;97786.89;110015;1249;68570;-68
2022/05/08 02:29:52;;;;;;;8.80;7.50;;;;;;;7.90;78.92;97785.90;110200;1249;67625;-67
2022/05/08 02:32:21;;;;;;;14.10;10.20;;;;;;;7.83;80.32;97783.86;110093;1249;59725;-68
2022/05/08 02:34:51;;;;;;;;;;;;;;;7.76;79.81;97783.36;110209;1249;59733;-66
2022/05/08 02:37:21;;;;;;;12.30;9.10;;;;;;;7.72;79.78;97784.98;110177;1250;71548;-68
2022/05/08 02:39:52;;;;;;;13.30;10.40;;;;;;;7.69;80.04;97785.01;109975;1250;68396;-68
2022/05/08 02:42:22;;;;;;;;;;;;;;;7.66;82.38;97789.11;109930;1250;68546;-68
2022/05/08 02:44:52;;;;;;;12.10;10.20;;;;;;;7.61;81.69;97789.02;109885;1250;59877;-68
2022/05/08 02:47:22;;;;;;;;;;;;;;;7.60;82.70;97789.25;109846;1252;59717;-68
2022/05/08 02:49:51;;;;;;;13.10;10.60;;;;;;;7.58;82.48;97788.34;109817;1250;71622;-67
2022/05/08 02:52:21;;;;;;;10.90;7.50;;;;;;;7.57;81.73;97788.05;110131;1249;68395;-67
2022/05/08 02:54:50;;;;;;;10.90;8.30;;;;;;;7.56;78.83;97788.06;110122;1250;69464;-67
2022/05/08 03:00:09;;;;;;;11.00;7.90;;;;;;;7.59;78.64;97790.35;110159;1248;59741;-67
2022/05/08 03:02:38;;;;;;;;;;;;;;;7.60;80.59;97795.66;110044;1249;71747;-69
2022/05/08 03:05:08;;;;;;;15.10;10.30;;;;;;;7.58;81.76;97796.13;110095;1250;67624;-68
2022/05/08 03:07:37;;;;;;;9.00;6.80;;;;;;;7.57;80.15;97791.30;109947;1250;68661;-68
2022/05/08 03:10:11;;;;;;;10.90;8.00;;;;;;;7.59;78.41;97794.36;109902;1250;60102;-68
2022/05/08 03:12:41;;;;;;;9.80;7.40;;;;;;;7.61;80.08;97796.13;109925;1250;59710;-68
2022/05/08 03:15:10;;;;;;;12.00;8.60;;;;;;;7.62;80.87;97796.59;110015;1249;69630;-67
2022/05/08 03:17:40;;;;;;;11.50;9.00;;;;;;;7.63;80.98;97797.78;109914;1249;68556;-68
2022/05/08 03:20:11;;;;;;;12.40;8.40;;;;;;;7.65;81.04;97798.89;110120;1249;68506;-68
2022/05/08 03:22:40;;;;;;;7.70;6.10;;;;;;;7.67;79.68;97798.06;109954;1249;59695;-68
2022/05/08 03:25:10;;;;;;;9.90;7.30;;;;;;;7.72;79.36;97798.17;110020;1250;59641;-67
2022/05/08 03:27:39;;;;;;;8.90;7.00;;;;;;;7.77;80.57;97804.13;109971;1250;71570;-68
2022/05/08 03:30:10;;;;;;;10.60;7.50;;;;;;;7.80;80.62;97800.30;109965;1250;68461;-67
2022/05/08 03:32:40;;;;;;;9.10;6.00;;;;;;;7.84;79.73;97804.23;110083;1249;69468;-69
2022/05/08 03:35:09;;;;;;;;;;;;;;;7.89;79.85;97806.60;110237;1247;59694;-71
2022/05/08 03:37:39;;;;;;;10.80;6.60;;;;;;;7.90;79.70;97807.73;109852;1249;59625;-69
2022/05/08 03:40:10;;;;;;;11.70;8.70;;;;;;;7.93;79.16;97810.91;109898;1250;71561;-67
2022/05/08 03:42:39;;;;;;;;;;;;;;;7.95;79.11;97813.54;110102;1250;68542;-67
2022/05/08 03:45:10;;;;;;;9.20;7.20;;;;;;;7.97;79.54;97816.73;110162;1250;69241;-67
2022/05/08 03:47:40;;;;;;;9.70;7.20;;;;;;;8.00;79.97;97819.19;110004;1250;59670;-67
2022/05/08 03:50:10;;;;;;;7.90;6.70;;;;;;;8.03;78.90;97823.65;109908;1250;59704;-68
2022/05/08 03:52:39;;;;;;;12.50;9.10;;;;;;;8.11;78.19;97826.52;109989;1250;70643;-68
2022/05/08 03:55:09;;;;;;;11.00;8.30;;;;;;;8.21;78.09;97823.73;109943;1250;67809;-69
2022/05/08 03:57:38;;;;;;;11.90;9.20;;;;;;;8.31;80.04;97827.48;109993;1249;68534;-67
2022/05/08 04:00:09;;;;;;;9.20;7.10;;;;;;;8.40;78.99;97829.42;109971;1250;59689;-67
2022/05/08 04:02:42;;;;;;;12.40;9.30;;;;;;;8.48;79.14;97830.69;109921;1249;59662;-69
2022/05/08 04:05:12;;;;;;;11.00;8.90;;;;;;;8.55;78.44;97831.86;110166;1249;71501;-67
2022/05/08 04:07:42;;;;;;;13.10;9.90;;;;;;;8.58;78.41;97829.05;109972;1250;67773;-69
2022/05/08 04:10:15;;;;;;;12.50;9.70;;;;;;;8.65;78.29;97834.59;109946;1250;69290;-69
2022/05/08 04:12:44;;;;;;;13.40;9.50;;;;;;;8.76;78.56;97833.80;109905;1250;59669;-68
2022/05/08 04:18:02;;;;;;;9.60;6.70;;;;;;;9.18;77.98;97840.45;110029;1250;71559;-68
2022/05/08 04:20:31;;;;;;;10.90;8.40;;;;;;;9.45;77.42;97837.78;110123;1249;68667;-69
2022/05/08 04:25:53;;;;;;;15.50;7.70;;;;;;;9.83;75.49;97843.94;109961;1250;59751;-67
2022/05/08 04:28:22;;;;;;;14.50;10.10;;;;;;;9.96;75.19;97846.28;109912;1250;59627;-67
2022/05/08 04:30:51;;;;;;;15.30;13.20;;;;;;;10.11;74.84;97844.79;110174;1250;71377;-68
2022/05/08 04:33:23;;;;;;;14.90;12.50;;;;;;;10.19;73.73;97846.89;109988;1250;67572;-67
2022/05/08 04:35:52;;;;;;;14.80;11.00;;;;;;;10.26;73.71;97848.55;109916;1250;68736;-70
2022/05/08 04:38:21;;;;;;;16.30;10.40;;;;;;;10.36;73.39;97849.48;109902;1250;59842;-67
2022/05/08 04:40:50;;;;;;;14.20;10.20;;;;;;;10.49;73.09;97850.86;110096;1249;59793;-68
2022/05/08 04:43:19;;;;;;;12.70;9.70;;;;;;;10.61;72.15;97851.27;110094;1249;70872;-70
2022/05/08 04:45:48;;;;;;;9.50;8.40;;;;;;;10.75;72.26;97851.97;110160;1250;68429;-69
2022/05/08 04:48:18;;;;;;;8.10;7.10;;;;;;;10.91;71.56;97850.70;110010;1250;68753;-69
2022/05/08 04:50:51;;;;;;;12.90;8.10;;;;;;;11.13;71.57;97856.17;109877;1250;59661;-67
2022/05/08 04:53:20;;;;;;;9.20;7.60;;;;;;;11.40;71.08;97855.40;109867;1250;59664;-67
2022/05/08 04:55:49;;;;;;;8.50;7.00;;;;;;;11.71;70.35;97854.66;110176;1250;71545;-67
2022/05/08 04:58:18;;;;;;;9.30;7.10;;;;;;;11.99;69.84;97860.20;109914;1249;68566;-68
2022/05/08 05:00:47;;;;;;;11.90;9.40;;;;;;;12.34;70.31;97857.51;109908;1250;69787;-67
2022/05/08 05:03:17;;;;;;;8.50;7.00;;;;;;;12.61;67.24;97863.04;110202;1249;59665;-67
2022/05/08 05:05:47;;;;;;;13.20;10.10;;;;;;;12.96;68.59;97861.13;109906;1250;59741;-70
2022/05/08 05:08:15;;;;;;;12.40;9.30;;;;;;;13.26;65.44;97857.30;109942;1250;69806;-68
2022/05/08 05:10:45;;;;;;;12.10;10.30;;;;;;;13.53;65.26;97860.52;110214;1249;68464;-68
2022/05/08 05:13:14;;;;;;;11.40;10.10;;;;;;;13.75;65.23;97859.61;109918;1250;69216;-67
2022/05/08 05:15:43;;;;;;;13.30;9.40;;;;;;;14.02;62.08;97861.50;110161;1250;59599;-69
2022/05/08 05:18:12;;;;;;;10.30;8.40;;;;;;;14.40;63.15;97861.59;110214;1250;59726;-66
2022/05/08 05:20:41;;;;;;;11.00;8.40;;;;;;;14.79;61.77;97863.86;110136;1249;70951;-67
2022/05/08 05:23:10;;;;;;;10.70;8.40;;;;;;;15.01;54.40;97866.11;110152;1250;67778;-66
2022/05/08 05:25:39;;;;;;;9.30;6.80;;;;;;;15.25;53.32;97867.21;110022;1250;68471;-69
2022/05/08 05:28:09;;;;;;;8.70;6.70;;;;;;;15.44;51.21;97865.39;110006;1250;59670;-70
2022/05/08 05:30:37;;;;;;;8.80;6.80;;;;;;;15.58;50.41;97869.71;110035;1250;60168;-67
2022/05/08 05:33:07;;;;;;;9.80;7.70;;;;;;;15.59;50.18;97870.64;109975;1250;70762;-67
2022/05/08 05:35:37;;;;;;;10.00;7.20;;;;;;;15.72;50.78;97869.89;109936;1250;68108;-68
2022/05/08 05:38:07;;;;;;;9.70;6.60;;;;;;;15.69;51.23;97868.20;110146;1250;69481;-68
2022/05/08 05:40:36;;;;;;;8.80;7.30;;;;;;;15.87;50.91;97868.44;109893;1250;59737;-66
2022/05/08 05:43:05;;;;;;;8.90;7.50;;;;;;;16.09;51.07;97871.61;109870;1250;59724;-70
2022/05/08 05:45:34;;;;;;;8.10;6.90;;;;;;;16.29;50.47;97872.46;109888;1250;71500;-68
2022/05/08 05:48:03;;;;;;;9.60;7.40;;;;;;;16.42;50.59;97871.63;110163;1250;68744;-67
2022/05/08 05:50:33;;;;;;;7.70;6.50;;;;;;;16.60;49.66;97869.67;110155;1249;69529;-68
2022/05/08 05:53:02;;;;;;;8.60;6.60;;;;;;;16.78;49.67;97870.05;110130;1249;59781;-68
2022/05/08 05:55:31;;;;;;;8.80;5.80;;;;;;;17.10;49.40;97872.16;109944;1250;59673;-69
2022/05/08 05:58:05;;;;;;;7.80;6.00;;;;;;;17.57;48.74;97868.02;109868;1250;71561;-68
2022/05/08 06:00:34;;;;;;;6.20;4.80;;;;;;;18.03;48.59;97870.19;109981;1250;68656;-67
2022/05/08 06:03:05;;;;;;;11.00;7.30;;;;;;;18.13;45.89;97869.35;109911;1250;68354;-69
2022/05/08 06:05:34;;;;;;;11.20;7.00;;;;;;;18.02;45.06;97867.93;109877;1250;59723;-70
2022/05/08 06:08:03;;;;;;;7.90;6.30;;;;;;;18.11;45.17;97867.30;109983;1250;59760;-69
2022/05/08 06:10:32;;;;;;;7.50;6.50;;;;;;;18.47;44.80;97865.89;109988;1250;70596;-69
2022/05/08 06:13:02;;;;;;;8.60;6.70;;;;;;;18.37;43.65;97866.25;109923;1250;68686;-70
2022/05/08 06:15:31;;;;;;;6.90;5.60;;;;;;;18.54;43.65;97861.32;109984;1250;69582;-68
2022/05/08 06:18:00;;;;;;;6.80;6.10;;;;;;;18.54;42.21;97860.66;109869;1250;59691;-68
2022/05/08 06:20:29;;;;;;;11.10;6.70;;;;;;;18.62;41.96;97863.79;109883;1250;59713;-68
2022/05/08 06:22:58;;;;;;;7.40;6.10;;;;;;;18.60;42.56;97861.98;109876;1250;72916;-69
2022/05/08 06:25:27;;;;;;;7.20;6.10;;;;;;;18.72;42.88;97862.02;109826;1250;68667;-69
2022/05/08 06:27:56;;;;;;;9.60;6.30;;;;;;;18.98;42.15;97861.64;109876;1250;67495;-68
2022/05/08 06:30:25;;;;;;;7.50;6.40;;;;;;;19.33;42.10;97862.99;109867;1250;59660;-70
2022/05/08 06:32:54;;;;;;;6.80;6.10;;;;;;;19.69;40.91;97860.11;109918;1250;59703;-68
2022/05/08 06:35:40;;;;;;;7.70;6.00;;;;;;;19.86;39.88;97860.30;109842;1249;70971;-68
2022/05/08 06:38:12;;;;;;;6.60;5.50;;;;;;;19.85;39.61;97864.09;109851;1250;66905;-68
2022/05/08 06:40:45;;;;;;;7.80;6.30;;;;;;;19.97;39.93;97862.31;109997;1250;69414;-68
2022/05/08 06:43:14;;;;;;;8.30;5.60;;;;;;;20.11;38.86;97867.00;109972;1250;59688;-69
2022/05/08 06:45:43;;;;;;;8.60;6.40;;;;;;;20.45;37.96;97869.80;109876;1250;59635;-67
2022/05/08 06:48:12;;;;;;;8.70;5.80;;;;;;;20.64;36.60;97873.08;109972;1251;70808;-69
2022/05/08 06:50:43;;;;;;;8.20;6.10;;;;;;;20.85;36.50;97873.17;109927;1250;68751;-69
2022/05/08 06:53:12;;;;;;;11.20;6.90;;;;;;;20.89;36.08;97873.56;109920;1250;69420;-69
2022/05/08 06:55:43;;;;;;;7.60;6.10;;;;;;;20.50;36.51;97869.48;110005;1250;59631;-69
2022/05/08 06:58:12;;;;;;;8.20;6.30;;;;;;;20.50;36.87;97869.86;110156;1249;59669;-68
2022/05/08 07:03:29;;;;;;;9.00;6.60;;;;;;;20.50;36.19;97871.83;109991;1250;68369;-68
2022/05/08 07:06:00;;;;;;;11.30;7.00;;;;;;;20.03;36.87;97870.34;110013;1249;69551;-71
2022/05/08 07:08:29;;;;;;;8.80;6.10;;;;;;;20.12;36.28;97866.20;110061;1250;59737;-72
2022/05/08 07:11:00;;;;;;;9.10;6.60;;;;;;;20.15;36.53;97867.85;110100;1250;59747;-68
2022/05/08 07:13:32;;;;;;;8.60;7.00;;;;;;;20.45;35.78;97868.04;109902;1250;71560;-69
2022/05/08 07:16:01;;;;;;;8.70;6.90;;;;;;;20.56;34.92;97866.66;109841;1250;68615;-71
2022/05/08 07:18:30;;;;;;;8.60;6.60;;;;;;;20.73;35.51;97867.35;110038;1250;69442;-69
2022/05/08 07:20:59;;;;;;;7.50;5.50;;;;;;;20.98;34.56;97864.90;110082;1247;59595;-68
2022/05/08 07:23:28;;;;;;;8.70;6.80;;;;;;;21.52;33.95;97862.64;109886;1250;59691;-72
2022/05/08 07:25:56;;;;;;;9.20;5.80;;;;;;;21.56;32.65;97861.14;109960;1250;70802;-69
2022/05/08 07:28:27;;;;;;;11.30;6.70;;;;;;;21.78;33.16;97864.94;109974;1250;68775;-68
2022/05/08 07:30:59;;;;;;;7.50;6.20;;;;;;;21.73;32.53;97861.34;110024;1250;69434;-69
2022/05/08 07:33:29;;;;;;;10.10;6.30;;;;;;;21.87;32.87;97859.11;109926;1250;59760;-69
2022/05/08 07:36:13;;;;;;;9.10;6.30;;;;;;;22.02;32.19;97860.10;110010;1250;59695;-70
2022/05/08 07:38:45;;;;;;;8.00;5.90;;;;;;;22.50;31.63;97862.08;109798;1251;71554;-69
2022/05/08 07:41:15;;;;;;;8.00;6.30;;;;;;;22.72;30.30;97858.79;109910;1250;68573;-72
2022/05/08 07:43:45;;;;;;;10.90;6.40;;;;;;;23.06;30.76;97862.04;109812;1250;68557;-72
2022/05/08 07:46:14;;;;;;;7.10;6.20;;;;;;;23.19;30.62;97860.19;109886;1250;59713;-69
2022/05/08 07:48:45;;;;;;;8.60;6.10;;;;;;;23.32;31.02;97860.36;110110;1250;59678;-68
2022/05/08 07:51:14;;;;;;;7.90;6.00;;;;;;;23.45;30.39;97854.94;110145;1250;72286;-71
2022/05/08 07:53:43;;;;;;;6.40;5.40;;;;;;;23.72;30.79;97855.48;110175;1249;68819;-69
2022/05/08 07:56:12;;;;;;;9.70;5.90;;;;;;;24.01;30.40;97849.34;110158;1250;68717;-71
2022/05/08 07:58:41;;;;;;;8.00;5.50;;;;;;;23.91;29.23;97851.93;110133;1250;59758;-69
2022/05/08 08:01:11;;;;;;;6.80;5.80;;;;;;;24.06;29.25;97851.95;110163;1250;59723;-70
2022/05/08 08:03:41;;;;;;;8.30;5.80;;;;;;;24.27;29.48;97853.48;109930;1250;71600;-73
2022/05/08 08:06:10;;;;;;;8.80;5.70;;;;;;;24.39;29.28;97853.69;109874;1250;67795;-71
2022/05/08 08:08:40;;;;;;;8.50;6.20;;;;;;;24.33;28.26;97855.54;110152;1250;68763;-70
2022/05/08 08:11:10;;;;;;;9.10;5.60;;;;;;;23.96;28.24;97851.38;110146;1250;59747;-70
2022/05/08 08:13:40;;;;;;;6.30;5.30;;;;;;;23.18;29.56;97856.89;110218;1250;59739;-70
2022/05/08 08:16:09;;;;;;;8.60;5.80;;;;;;;22.98;30.25;97852.29;109967;1250;71592;-69
2022/05/08 08:18:42;;;;;;;8.60;5.50;;;;;;;23.37;29.52;97851.25;110192;1250;68645;-69
2022/05/08 08:21:14;;;;;;;7.20;5.00;;;;;;;23.91;28.82;97849.79;109826;1250;68796;-69
2022/05/08 08:23:44;;;;;;;8.60;5.70;;;;;;;24.30;29.22;97846.84;109913;1250;59675;-73
2022/05/08 08:26:13;;;;;;;6.80;4.90;;;;;;;24.80;28.66;97848.48;110173;1250;59679;-72
2022/05/08 08:28:42;;;;;;;7.90;5.60;;;;;;;24.77;27.16;97851.36;109932;1250;71042;-69
2022/05/08 08:31:12;;;;;;;7.70;5.40;;;;;;;24.23;27.05;97846.78;110171;1251;67678;-71
2022/05/08 08:33:42;;;;;;;6.60;5.00;;;;;;;24.46;27.49;97848.80;110172;1250;68675;-71
2022/05/08 08:36:12;;;;;;;6.00;4.70;;;;;;;24.82;27.40;97850.71;110178;1250;59709;-69
2022/05/08 08:38:41;;;;;;;7.70;5.70;;;;;;;25.53;27.42;97846.43;110155;1251;59671;-71
2022/05/08 08:41:13;;;;;;;7.20;4.80;;;;;;;25.12;26.33;97845.91;110163;1250;71565;-70
2022/05/08 08:49:23;;;;;;;7.90;5.30;;;;;;;25.41;26.56;97844.38;110147;1250;59810;-72
2022/05/08 08:51:52;;;;;;;8.80;5.90;;;;;;;25.96;25.91;97842.18;109901;1250;59733;-70
2022/05/08 08:54:21;;;;;;;6.70;5.10;;;;;;;25.78;25.26;97838.02;110199;1249;72191;-69
2022/05/08 08:56:50;;;;;;;;;;;;;;;25.86;25.30;97841.98;110204;1250;68613;-71
2022/05/08 08:59:25;;;;;;;7.20;5.70;;;;;;;25.90;24.60;97840.48;110170;1251;68632;-69
2022/05/08 09:01:55;;;;;;;6.70;5.40;;;;;;;26.27;25.49;97837.27;110155;1250;59737;-70
2022/05/08 09:04:25;;;;;;;6.30;5.00;;;;;;;26.10;25.12;97838.58;110133;1250;59671;-70
2022/05/08 09:06:54;;;;;;;6.40;4.40;;;;;;;25.93;24.29;97838.72;110181;1249;71545;-71
2022/05/08 09:09:28;;;;;;;6.50;5.20;;;;;;;25.75;24.26;97836.98;110162;1250;67820;-71
2022/05/08 09:11:58;;;;;;;6.70;5.60;;;;;;;25.95;24.89;97834.25;110192;1250;69420;-68
2022/05/08 09:14:34;;;;;;;6.70;5.70;;;;;;;26.06;25.40;97838.40;109789;1250;59739;-69
2022/05/08 09:17:06;;;;;;;6.50;5.80;;;;;;;26.03;25.28;97833.02;110178;1250;59669;-71
2022/05/08 09:19:41;;;;;;;7.80;6.00;;;;;;;25.59;25.87;97834.63;110175;1250;71558;-70
2022/05/08 09:22:15;;;;;;;6.30;5.40;;;;;;;26.00;25.25;97834.89;110187;1250;67819;-68
2022/05/08 09:24:51;;;;;;;6.40;5.80;;;;;;;26.32;24.64;97833.59;110139;1250;69445;-69
2022/05/08 09:27:21;;;;;;;6.10;5.20;;;;;;;26.51;24.43;97832.65;110000;1251;59660;-71
2022/05/08 09:30:07;;;;;;;7.90;5.40;;;;;;;26.64;25.21;97831.46;109958;1251;59661;-66
2022/05/08 09:32:39;;;;;;;6.70;4.80;;;;;;;26.80;24.24;97831.23;109959;1251;71577;-69
2022/05/08 09:35:08;;;;;;;6.80;5.10;;;;;;;26.96;23.60;97829.73;110194;1250;68687;-70
2022/05/08 09:37:53;;;;;;;;;;;;;;;27.52;23.90;97824.98;109828;1251;69378;-69
2022/05/08 09:40:22;;;;;;;7.50;4.90;;;;;;;27.46;23.74;97822.22;110185;1250;59689;-70
2022/05/08 09:42:51;;;;;;;10.20;5.60;;;;;;;27.52;23.75;97818.04;109973;1251;59608;-69
2022/05/08 09:45:20;;;;;;;7.00;5.40;;;;;;;27.73;23.76;97816.19;110208;1250;72161;-73
2022/05/08 09:47:49;;;;;;;7.00;5.40;;;;;;;27.50;24.07;97812.42;110176;1248;67959;-72
2022/05/08 09:50:19;;;;;;;6.40;5.00;;;;;;;28.08;23.91;97810.86;110153;1248;67995;-73
2022/05/08 09:52:47;;;;;;;;;;;;;;;28.50;23.73;97810.77;109939;1251;59749;-72
2022/05/08 09:55:20;;;;;;;5.30;4.80;;;;;;;28.43;23.40;97812.95;109905;1251;59722;-74
2022/05/08 09:57:48;;;;;;;8.00;5.80;;;;;;;28.98;23.15;97811.31;109434;1251;770868;-70
2022/05/08 10:00:19;;;;;;;7.50;5.40;;;;;;;29.19;22.60;97807.59;110012;1251;67530;-71
2022/05/08 10:02:49;;;;;;;9.10;5.70;;;;;;;28.90;22.60;97807.43;109835;1250;68599;-70
2022/05/08 10:05:19;;;;;;;5.70;5.20;;;;;;;28.49;23.26;97801.58;109938;1251;59681;-69
2022/05/08 10:07:49;;;;;;;7.10;5.40;;;;;;;27.83;23.74;97800.65;109808;1251;59664;-71
2022/05/08 10:15:57;;;;;;;6.60;5.40;;;;;;;25.82;26.80;97790.25;109888;1251;69526;-73
2022/05/08 10:18:31;;;;;;;7.80;5.00;;;;;;;25.99;26.60;97787.13;110018;1249;59706;-70
2022/05/08 10:21:01;;;;;;;8.20;5.20;;;;;;;25.84;26.76;97784.48;110039;1251;59736;-72
2022/05/08 10:23:48;;;;;;;6.50;5.10;;;;;;;25.74;27.34;97784.52;109727;1253;72185;-71
2022/05/08 10:26:21;;;;;;;6.90;5.70;;;;;;;25.02;28.31;97784.39;109976;1251;68624;-70
2022/05/08 10:29:02;;;;;;;6.30;5.10;;;;;;;25.17;28.13;97785.95;109977;1250;68455;-69
2022/05/08 10:31:53;;;;;;;5.90;4.40;;;;;;;25.30;28.07;97786.34;109987;1251;59733;-68
2022/05/08 10:34:37;;;;;;;7.00;5.50;;;;;;;25.16;28.06;97778.18;109736;1251;59690;-70
2022/05/08 10:37:12;;;;;;;7.20;5.90;;;;;;;25.89;27.49;97776.45;110004;1251;72119;-70
2022/05/08 10:39:43;;;;;;;7.80;5.80;;;;;;;25.74;27.85;97769.83;109961;1251;67844;-70
2022/05/08 10:45:00;;;;;;;6.50;5.60;;;;;;;25.90;27.68;97769.90;109912;1251;59742;-70
2022/05/08 10:47:32;;;;;;;8.50;6.40;;;;;;;25.73;27.60;97772.45;109942;1251;59677;-71
2022/05/08 10:50:05;;;;;;;6.50;5.70;;;;;;;25.26;28.95;97766.66;110003;1251;71541;-72
2022/05/08 10:52:46;;;;;;;8.70;6.60;;;;;;;25.39;29.12;97765.85;109726;1251;68663;-72
2022/05/08 10:55:17;;;;;;;9.50;6.90;;;;;;;25.20;29.15;97765.23;109795;1253;68481;-69
2022/05/08 10:57:49;;;;;;;7.90;7.00;;;;;;;25.32;29.24;97757.48;109842;1251;59732;-69
2022/05/08 11:00:28;;;;;;;6.40;5.30;;;;;;;25.42;29.85;97756.80;109773;1251;59700;-70
2022/05/08 11:03:01;;;;;;;6.80;5.20;;;;;;;26.36;28.69;97752.79;109889;1250;72242;-68
2022/05/08 11:05:37;;;;;;;6.10;5.20;;;;;;;26.80;27.74;97751.45;109736;1251;68754;-73
2022/05/08 11:08:10;;;;;;;6.80;5.60;;;;;;;27.30;27.28;97747.89;109759;1253;69409;-70
2022/05/08 11:10:43;;;;;;;5.70;5.10;;;;;;;27.82;27.00;97750.95;109690;1253;59710;-71
2022/05/08 11:13:21;;;;;;;7.90;7.00;;;;;;;27.95;25.89;97751.03;110005;1251;59687;-70
2022/05/08 11:15:52;;;;;;;6.10;5.50;;;;;;;27.68;25.66;97748.14;109910;1251;71489;-69
2022/05/08 11:18:23;;;;;;;;;;;;;;;27.38;26.37;97743.52;109668;1251;68436;-72
2022/05/08 11:21:00;;;;;;;6.80;5.20;;;;;;;26.81;26.70;97745.86;109885;1251;69461;-70
2022/05/08 11:23:42;;;;;;;8.40;5.70;;;;;;;26.87;26.53;97743.86;109842;1251;59694;-70
2022/05/08 11:26:13;;;;;;;8.50;4.60;;;;;;;27.38;27.15;97741.41;109921;1251;59625;-71
2022/05/08 11:28:50;;;;;;;5.70;4.80;;;;;;;27.78;26.44;97743.20;110011;1251;70776;-72
2022/05/08 11:31:20;;;;;;;5.80;4.90;;;;;;;28.12;25.69;97740.61;109926;1251;69262;-68
2022/05/08 11:36:38;;;;;;;4.80;4.00;;;;;;;28.30;24.91;97735.88;109980;1250;59645;-69
2022/05/08 11:39:18;;;;;;;6.80;4.40;;;;;;;28.50;25.22;97739.28;110020;1251;59609;-70
2022/05/08 11:41:50;;;;;;;5.70;5.10;;;;;;;28.30;25.34;97737.95;110015;1251;71636;-70
2022/05/08 11:44:23;;;;;;;6.20;5.10;;;;;;;28.47;25.24;97735.86;109893;1251;67806;-69
2022/05/08 11:46:56;;;;;;;4.50;4.10;;;;;;;28.47;24.79;97737.27;109833;1251;68648;-69
2022/05/08 11:49:29;;;;;;;4.40;4.00;;;;;;;28.26;23.97;97738.39;109822;1251;59724;-69
2022/05/08 11:52:04;;;;;;;5.90;4.70;;;;;;;28.23;23.69;97735.35;109789;1252;59742;-69
2022/05/08 11:54:38;;;;;;;5.10;4.10;;;;;;;27.85;24.17;97733.19;109772;1251;71927;-69
2022/05/08 11:57:22;;;;;;;5.00;3.70;;;;;;;27.76;24.51;97728.80;110218;1250;67030;-71
2022/05/08 12:00:05;;;;;;;5.40;4.70;;;;;;;27.53;24.64;97725.66;109834;1251;69908;-70
2022/05/08 12:02:52;;;;;;;5.20;4.20;;;;;;;27.18;25.34;97714.98;110014;1251;59698;-70
2022/05/08 12:05:23;;;;;;;5.20;3.20;;;;;;;27.74;24.77;97719.16;109968;1250;59730;-72
2022/05/08 12:07:52;;;;;;;4.30;3.60;;;;;;;27.92;24.46;97717.40;109973;1250;71440;-72
2022/05/08 12:10:36;;;;;;;4.40;3.60;;;;;;;28.17;23.66;97712.09;109960;1249;68887;-73
2022/05/08 12:13:06;;;;;;;4.20;3.80;;;;;;;28.03;24.36;97709.98;110052;1249;69449;-73